Time;durP1;ratioP1;P1;durP2;ratioP2;P2;SDS_P1;SDS_P2;PMS_P1;PMS_P2;Temp;Humidity;BMP_temperature;BMP_pressure;BME280_temperature;BME280_humidity;BME280_pressure;Samples;Min_cycle;Max_cycle;Signal;HPM_P1;HPM_P2
2021/08/14 00:00:05;;;;;;;12.65;9.02;;;;;;;;;;5037555;28;20025;-79
2021/08/14 00:02:31;;;;;;;9.63;8.73;;;;;;;;;;5037665;28;20057;-80
2021/08/14 00:04:57;;;;;;;10.35;9.25;;;;;;;;;;5038102;28;20025;-79
2021/08/14 00:07:23;;;;;;;15.45;10.85;;;;;;;;;;5037472;28;20089;-79
2021/08/14 00:09:49;;;;;;;13.07;9.98;;;;;;;;;;5037751;28;20030;-81
2021/08/14 00:12:15;;;;;;;10.73;9.73;;;;;;;;;;5037460;28;20468;-80
2021/08/14 00:14:41;;;;;;;10.68;9.52;;;;;;;;;;5037141;28;20055;-81
2021/08/14 00:17:08;;;;;;;11.82;9.25;;;;;;;;;;5038050;28;20025;-76
2021/08/14 00:19:34;;;;;;;10.00;9.20;;;;;;;;;;5037325;28;20026;-76
2021/08/14 00:22:00;;;;;;;11.27;9.95;;;;;;;;;;5037146;28;20028;-75
2021/08/14 00:24:26;;;;;;;11.23;10.23;;;;;;;;;;5037491;28;20055;-75
2021/08/14 00:26:52;;;;;;;9.55;8.65;;;;;;;;;;5037303;28;20029;-76
2021/08/14 00:29:18;;;;;;;15.25;11.95;;;;;;;;;;5036844;28;20036;-75
2021/08/14 00:31:44;;;;;;;11.88;10.63;;;;;;;;;;5037088;28;20071;-75
2021/08/14 00:34:10;;;;;;;10.07;9.15;;;;;;;;;;5037466;28;20041;-75
2021/08/14 00:36:36;;;;;;;10.23;9.23;;;;;;;;;;5036948;28;20107;-75
2021/08/14 00:39:03;;;;;;;9.73;8.90;;;;;;;;;;5037280;28;20022;-75
2021/08/14 00:41:30;;;;;;;11.65;10.43;;;;;;;;;;5037014;28;20030;-75
2021/08/14 00:44:01;;;;;;;10.93;9.80;;;;;;;;;;5036739;28;20025;-75
2021/08/14 00:46:27;;;;;;;10.23;9.27;;;;;;;;;;5037470;28;20051;-75
2021/08/14 00:48:53;;;;;;;10.85;9.82;;;;;;;;;;5036570;28;20034;-75
2021/08/14 00:51:19;;;;;;;12.07;9.90;;;;;;;;;;5036617;28;20026;-75
2021/08/14 00:53:45;;;;;;;10.43;9.43;;;;;;;;;;5036799;28;20040;-75
2021/08/14 00:56:11;;;;;;;10.80;9.70;;;;;;;;;;5036629;28;20124;-75
2021/08/14 00:58:37;;;;;;;9.95;9.02;;;;;;;;;;5036298;28;20091;-75
2021/08/14 01:01:03;;;;;;;9.60;8.80;;;;;;;;;;5037154;28;20026;-75
2021/08/14 01:03:29;;;;;;;11.73;8.75;;;;;;;;;;5036950;28;20047;-75
2021/08/14 01:05:56;;;;;;;10.52;9.52;;;;;;;;;;5036508;28;20025;-75
2021/08/14 01:08:22;;;;;;;9.35;8.48;;;;;;;;;;5036706;28;20108;-75
2021/08/14 01:10:48;;;;;;;12.57;9.95;;;;;;;;;;5036386;28;20360;-75
2021/08/14 01:13:14;;;;;;;9.68;8.52;;;;;;;;;;5036095;28;20030;-75
2021/08/14 01:15:41;;;;;;;10.68;9.68;;;;;;;;;;5036657;28;20041;-75
2021/08/14 01:18:07;;;;;;;12.18;9.07;;;;;;;;;;5036779;28;20021;-75
2021/08/14 01:20:33;;;;;;;10.27;9.20;;;;;;;;;;5036519;28;20029;-76
2021/08/14 01:22:59;;;;;;;14.45;9.60;;;;;;;;;;5036043;28;20403;-75
2021/08/14 01:25:25;;;;;;;11.95;8.63;;;;;;;;;;5036247;28;20406;-75
2021/08/14 01:27:51;;;;;;;9.63;8.73;;;;;;;;;;5035876;28;20103;-75
2021/08/14 01:30:17;;;;;;;9.88;8.85;;;;;;;;;;5035781;28;20022;-76
2021/08/14 01:32:43;;;;;;;8.55;7.60;;;;;;;;;;5036448;28;20057;-76
2021/08/14 01:35:09;;;;;;;9.95;9.05;;;;;;;;;;5035669;28;20038;-78
2021/08/14 01:37:35;;;;;;;10.40;8.60;;;;;;;;;;5035987;28;20036;-77
2021/08/14 01:40:02;;;;;;;11.70;8.32;;;;;;;;;;5035768;28;20025;-77
2021/08/14 01:42:28;;;;;;;9.30;8.50;;;;;;;;;;5035431;28;20120;-76
2021/08/14 01:44:54;;;;;;;9.40;8.55;;;;;;;;;;5035512;28;20028;-77
2021/08/14 01:47:20;;;;;;;10.90;9.13;;;;;;;;;;5036202;28;20068;-77
2021/08/14 01:49:46;;;;;;;9.93;8.90;;;;;;;;;;5035961;28;20026;-76
2021/08/14 01:52:13;;;;;;;9.77;8.93;;;;;;;;;;5035857;28;20057;-77
2021/08/14 01:54:39;;;;;;;9.30;8.40;;;;;;;;;;5035489;28;20036;-77
2021/08/14 01:57:06;;;;;;;9.50;7.70;;;;;;;;;;5035329;28;20108;-75
2021/08/14 01:59:32;;;;;;;10.93;8.80;;;;;;;;;;5034853;28;20045;-77
2021/08/14 02:01:58;;;;;;;10.25;9.30;;;;;;;;;;5035941;28;20062;-76
2021/08/14 02:04:24;;;;;;;10.77;8.18;;;;;;;;;;5035148;28;20116;-76
2021/08/14 02:06:50;;;;;;;9.05;8.10;;;;;;;;;;5035670;28;20033;-76
2021/08/14 02:09:16;;;;;;;10.05;9.05;;;;;;;;;;5035091;28;20025;-76
2021/08/14 02:11:42;;;;;;;8.77;7.95;;;;;;;;;;5035024;28;20380;-76
2021/08/14 02:14:08;;;;;;;10.40;9.38;;;;;;;;;;5035140;28;20045;-76
2021/08/14 02:16:35;;;;;;;12.63;9.38;;;;;;;;;;5035179;28;20084;-76
2021/08/14 02:19:01;;;;;;;10.05;8.68;;;;;;;;;;5035089;28;20052;-77
2021/08/14 02:21:27;;;;;;;9.20;7.95;;;;;;;;;;5035429;28;20108;-77
2021/08/14 02:23:53;;;;;;;25.98;8.85;;;;;;;;;;5035279;28;20036;-76
2021/08/14 02:26:19;;;;;;;9.45;8.13;;;;;;;;;;5034806;28;20030;-76
2021/08/14 02:28:45;;;;;;;9.52;8.73;;;;;;;;;;5034564;28;20026;-76
2021/08/14 02:31:11;;;;;;;12.45;8.60;;;;;;;;;;5034845;28;20032;-76
2021/08/14 02:33:37;;;;;;;11.05;9.07;;;;;;;;;;5035195;28;20089;-76
2021/08/14 02:36:04;;;;;;;13.13;8.93;;;;;;;;;;5034687;28;20380;-77
2021/08/14 02:38:30;;;;;;;9.50;8.55;;;;;;;;;;5034787;28;20025;-77
2021/08/14 02:40:56;;;;;;;9.13;8.23;;;;;;;;;;5034464;28;20030;-77
2021/08/14 02:43:22;;;;;;;9.32;8.52;;;;;;;;;;5034444;28;20025;-77
2021/08/14 02:45:48;;;;;;;10.30;8.68;;;;;;;;;;5034421;28;20025;-77
2021/08/14 02:48:14;;;;;;;8.48;7.78;;;;;;;;;;5034874;28;20029;-76
2021/08/14 02:50:44;;;;;;;9.68;8.30;;;;;;;;;;5034558;28;20079;-76
2021/08/14 02:53:10;;;;;;;9.52;8.73;;;;;;;;;;5034442;28;20503;-77
2021/08/14 02:55:36;;;;;;;12.55;7.68;;;;;;;;;;5034577;28;20495;-77
2021/08/14 02:58:03;;;;;;;8.95;8.13;;;;;;;;;;5034302;28;21153;-76
2021/08/14 03:00:29;;;;;;;9.10;8.30;;;;;;;;;;5035061;28;20529;-76
2021/08/14 03:02:55;;;;;;;12.32;8.63;;;;;;;;;;5034764;28;20048;-77
2021/08/14 03:05:21;;;;;;;9.40;8.50;;;;;;;;;;5034466;28;20029;-76
2021/08/14 03:07:47;;;;;;;9.38;8.57;;;;;;;;;;5034683;28;20036;-77
2021/08/14 03:10:13;;;;;;;11.88;9.07;;;;;;;;;;5034357;28;20537;-76
2021/08/14 03:12:39;;;;;;;10.60;9.50;;;;;;;;;;5037971;28;20471;-76
2021/08/14 03:15:06;;;;;;;9.48;8.55;;;;;;;;;;5039021;28;20034;-76
2021/08/14 03:17:32;;;;;;;11.75;8.85;;;;;;;;;;5038839;28;20044;-76
2021/08/14 03:19:58;;;;;;;8.85;8.10;;;;;;;;;;5038815;28;20109;-76
2021/08/14 03:22:24;;;;;;;9.07;8.20;;;;;;;;;;5038025;28;20029;-76
2021/08/14 03:24:50;;;;;;;15.20;9.32;;;;;;;;;;5038433;28;20112;-77
2021/08/14 03:27:16;;;;;;;9.15;8.25;;;;;;;;;;5038158;28;20033;-76
2021/08/14 03:29:42;;;;;;;9.65;8.85;;;;;;;;;;5038140;28;20479;-76
2021/08/14 03:32:09;;;;;;;11.18;10.05;;;;;;;;;;5038239;28;20033;-76
2021/08/14 03:34:35;;;;;;;10.15;9.15;;;;;;;;;;5038329;28;20084;-76
2021/08/14 03:37:01;;;;;;;9.57;8.77;;;;;;;;;;5038271;28;20071;-76
2021/08/14 03:39:27;;;;;;;8.60;7.90;;;;;;;;;;5037975;28;20052;-77
2021/08/14 03:41:53;;;;;;;14.50;12.98;;;;;;;;;;5037964;28;20132;-77
2021/08/14 03:44:19;;;;;;;10.80;9.20;;;;;;;;;;5038528;28;20025;-76
2021/08/14 03:46:45;;;;;;;11.07;9.80;;;;;;;;;;5038288;28;20032;-76
2021/08/14 03:49:11;;;;;;;10.25;9.30;;;;;;;;;;5037907;28;20021;-76
2021/08/14 03:51:37;;;;;;;8.15;7.32;;;;;;;;;;5037745;28;20026;-76
2021/08/14 03:54:03;;;;;;;9.10;8.20;;;;;;;;;;5037964;28;20033;-76
2021/08/14 03:56:29;;;;;;;12.95;8.05;;;;;;;;;;5037363;28;20068;-77
2021/08/14 03:58:55;;;;;;;17.90;10.80;;;;;;;;;;5038059;28;20552;-77
2021/08/14 04:01:21;;;;;;;15.55;8.23;;;;;;;;;;5037946;28;20475;-77
2021/08/14 04:03:47;;;;;;;8.40;7.60;;;;;;;;;;5037943;28;20048;-77
2021/08/14 04:06:13;;;;;;;10.18;9.18;;;;;;;;;;5037404;28;20022;-77
2021/08/14 04:08:39;;;;;;;10.13;8.55;;;;;;;;;;5037629;28;20029;-78
2021/08/14 04:11:06;;;;;;;9.63;8.73;;;;;;;;;;5037265;28;20036;-76
2021/08/14 04:13:32;;;;;;;11.38;10.38;;;;;;;;;;5038060;28;20128;-76
2021/08/14 04:15:58;;;;;;;12.35;8.85;;;;;;;;;;5037235;28;20426;-77
2021/08/14 04:18:24;;;;;;;10.70;9.00;;;;;;;;;;5037724;28;20017;-77
2021/08/14 04:20:50;;;;;;;15.65;8.65;;;;;;;;;;5037314;28;20029;-77
2021/08/14 04:23:16;;;;;;;9.38;8.50;;;;;;;;;;5036252;28;20021;-78
2021/08/14 04:25:42;;;;;;;9.93;9.02;;;;;;;;;;5037092;28;20029;-77
2021/08/14 04:28:08;;;;;;;9.80;8.90;;;;;;;;;;5036775;28;20032;-77
2021/08/14 04:30:34;;;;;;;9.93;8.00;;;;;;;;;;5037587;28;20032;-77
2021/08/14 04:33:00;;;;;;;7.38;6.70;;;;;;;;;;5037122;28;20033;-76
2021/08/14 04:35:27;;;;;;;8.25;7.45;;;;;;;;;;5036784;28;20045;-76
2021/08/14 04:37:53;;;;;;;12.73;8.85;;;;;;;;;;5036813;28;20025;-76
2021/08/14 04:40:19;;;;;;;8.60;7.90;;;;;;;;;;5036815;28;20030;-76
2021/08/14 04:42:45;;;;;;;9.93;8.93;;;;;;;;;;5036870;28;20112;-76
2021/08/14 04:45:11;;;;;;;11.18;8.40;;;;;;;;;;5036774;28;20101;-76
2021/08/14 04:47:37;;;;;;;13.82;9.20;;;;;;;;;;5037048;28;20029;-76
2021/08/14 04:50:04;;;;;;;10.25;8.77;;;;;;;;;;5036833;28;20025;-76
2021/08/14 04:52:31;;;;;;;8.93;8.10;;;;;;;;;;5036861;28;20034;-76
2021/08/14 04:54:57;;;;;;;13.30;9.75;;;;;;;;;;5036452;28;20128;-76
2021/08/14 04:57:23;;;;;;;9.02;8.18;;;;;;;;;;5037254;28;20025;-76
2021/08/14 04:59:50;;;;;;;10.65;9.70;;;;;;;;;;5036485;28;20049;-76
2021/08/14 05:02:16;;;;;;;10.00;9.10;;;;;;;;;;5036922;28;20471;-76
2021/08/14 05:04:42;;;;;;;10.93;9.85;;;;;;;;;;5036496;28;20084;-76
2021/08/14 05:07:09;;;;;;;10.85;8.95;;;;;;;;;;5036512;28;20029;-76
2021/08/14 05:09:35;;;;;;;8.93;8.23;;;;;;;;;;5036297;28;20485;-77
2021/08/14 05:12:01;;;;;;;8.88;8.18;;;;;;;;;;5037072;28;20068;-77
2021/08/14 05:14:27;;;;;;;10.50;9.43;;;;;;;;;;5036375;28;20114;-77
2021/08/14 05:16:54;;;;;;;10.88;9.85;;;;;;;;;;5036364;28;20487;-77
2021/08/14 05:19:20;;;;;;;18.45;8.27;;;;;;;;;;5036191;28;20037;-76
2021/08/14 05:21:46;;;;;;;12.95;10.45;;;;;;;;;;5036422;28;20056;-76
2021/08/14 05:24:12;;;;;;;15.75;9.70;;;;;;;;;;5035969;28;20061;-76
2021/08/14 05:26:38;;;;;;;10.65;8.85;;;;;;;;;;5036077;28;20125;-76
2021/08/14 05:29:04;;;;;;;9.90;9.05;;;;;;;;;;5036469;28;20022;-76
2021/08/14 05:31:30;;;;;;;11.88;8.63;;;;;;;;;;5035918;28;20026;-76
2021/08/14 05:34:01;;;;;;;11.55;10.57;;;;;;;;;;5035552;28;20375;-76
2021/08/14 05:36:28;;;;;;;10.80;9.82;;;;;;;;;;5035884;28;20030;-71
2021/08/14 05:38:54;;;;;;;10.55;9.55;;;;;;;;;;5031369;28;20364;-73
2021/08/14 05:41:20;;;;;;;9.43;7.95;;;;;;;;;;5034697;28;20419;-74
2021/08/14 05:43:46;;;;;;;10.77;8.35;;;;;;;;;;5035280;28;20040;-74
2021/08/14 05:46:12;;;;;;;9.07;8.18;;;;;;;;;;5034830;28;20029;-76
2021/08/14 05:48:38;;;;;;;9.77;8.93;;;;;;;;;;5034649;28;20025;-73
2021/08/14 05:51:04;;;;;;;12.27;10.93;;;;;;;;;;5035204;28;20505;-71
2021/08/14 05:53:30;;;;;;;9.93;9.02;;;;;;;;;;5034574;28;20065;-74
2021/08/14 05:55:56;;;;;;;9.98;8.43;;;;;;;;;;5032753;28;20113;-74
2021/08/14 05:58:22;;;;;;;9.70;8.65;;;;;;;;;;5034234;28;20388;-74
2021/08/14 06:00:48;;;;;;;11.02;10.02;;;;;;;;;;5035191;28;20022;-75
2021/08/14 06:03:15;;;;;;;10.07;9.05;;;;;;;;;;5034723;28;20026;-76
2021/08/14 06:05:41;;;;;;;20.92;9.88;;;;;;;;;;5032556;28;20489;-74
2021/08/14 06:08:07;;;;;;;10.32;9.32;;;;;;;;;;5034278;28;20076;-81
2021/08/14 06:10:33;;;;;;;18.33;11.27;;;;;;;;;;5034520;28;20111;-72
2021/08/14 06:12:59;;;;;;;13.65;9.18;;;;;;;;;;5035041;28;20026;-73
2021/08/14 06:15:25;;;;;;;11.35;10.30;;;;;;;;;;5033289;28;20079;-73
2021/08/14 06:17:51;;;;;;;11.85;10.68;;;;;;;;;;5033267;28;20064;-74
2021/08/14 06:20:17;;;;;;;10.25;8.65;;;;;;;;;;5034343;28;20017;-74
2021/08/14 06:22:43;;;;;;;10.15;9.07;;;;;;;;;;5034555;28;20025;-75
2021/08/14 06:25:10;;;;;;;15.00;10.43;;;;;;;;;;5034181;28;20037;-73
2021/08/14 06:27:36;;;;;;;14.68;10.38;;;;;;;;;;5031787;28;20073;-74
2021/08/14 06:30:02;;;;;;;11.15;10.25;;;;;;;;;;5033940;28;20029;-76
2021/08/14 06:32:28;;;;;;;12.40;10.18;;;;;;;;;;5034229;28;20018;-74
2021/08/14 06:34:54;;;;;;;11.30;9.50;;;;;;;;;;5034522;28;20079;-75
2021/08/14 06:37:20;;;;;;;14.85;9.23;;;;;;;;;;5031290;28;20038;-76
2021/08/14 06:39:46;;;;;;;12.02;9.70;;;;;;;;;;5034573;28;20025;-74
2021/08/14 06:42:13;;;;;;;9.68;8.88;;;;;;;;;;5034209;28;20386;-76
2021/08/14 06:44:39;;;;;;;11.02;8.77;;;;;;;;;;5034184;28;20108;-77
2021/08/14 06:47:05;;;;;;;13.77;7.90;;;;;;;;;;5031397;28;20036;-75
2021/08/14 06:49:31;;;;;;;12.27;10.18;;;;;;;;;;5020774;28;20368;-73
2021/08/14 06:51:57;;;;;;;10.07;8.45;;;;;;;;;;5033473;28;20021;-76
2021/08/14 06:54:23;;;;;;;10.15;9.18;;;;;;;;;;5034511;28;20044;-75
2021/08/14 06:56:49;;;;;;;10.27;9.35;;;;;;;;;;5034328;28;20025;-74
2021/08/14 06:59:15;;;;;;;10.63;9.52;;;;;;;;;;5034957;28;20506;-75
2021/08/14 07:01:41;;;;;;;12.18;10.85;;;;;;;;;;5034392;28;20026;-75
2021/08/14 07:04:07;;;;;;;12.07;9.65;;;;;;;;;;5034603;28;20108;-74
2021/08/14 07:06:33;;;;;;;10.38;9.52;;;;;;;;;;5034319;28;20023;-74
2021/08/14 07:08:59;;;;;;;14.13;9.45;;;;;;;;;;5034410;28;20034;-76
2021/08/14 07:11:26;;;;;;;9.65;8.82;;;;;;;;;;5034830;28;20028;-77
2021/08/14 07:13:52;;;;;;;15.48;10.02;;;;;;;;;;5034751;28;20402;-75
2021/08/14 07:16:19;;;;;;;11.73;8.95;;;;;;;;;;5034489;28;20100;-75
2021/08/14 07:18:45;;;;;;;13.98;9.88;;;;;;;;;;5034519;28;20022;-77
2021/08/14 07:21:11;;;;;;;10.07;9.20;;;;;;;;;;5034086;28;20021;-76
2021/08/14 07:23:37;;;;;;;10.55;9.43;;;;;;;;;;5034585;28;20465;-76
2021/08/14 07:26:03;;;;;;;16.67;8.25;;;;;;;;;;5034196;28;20033;-75
2021/08/14 07:28:29;;;;;;;12.95;7.97;;;;;;;;;;5034396;28;20029;-75
2021/08/14 07:30:55;;;;;;;9.73;8.65;;;;;;;;;;5034304;28;20036;-91
2021/08/14 07:33:21;;;;;;;10.20;9.23;;;;;;;;;;5034162;28;20055;-85
2021/08/14 07:35:47;;;;;;;10.93;8.85;;;;;;;;;;5033816;28;20032;-91
2021/08/14 07:38:14;;;;;;;13.27;8.52;;;;;;;;;;5033425;28;20112;-86
2021/08/14 07:40:40;;;;;;;13.10;9.30;;;;;;;;;;5034484;28;20027;-76
2021/08/14 07:43:08;;;;;;;12.00;8.65;;;;;;;;;;5034087;28;20072;-85
2021/08/14 07:45:34;;;;;;;8.80;8.10;;;;;;;;;;5034195;28;20022;-83
2021/08/14 07:48:01;;;;;;;10.63;9.70;;;;;;;;;;5033968;28;20113;-82
2021/08/14 07:50:28;;;;;;;8.98;8.18;;;;;;;;;;5033603;28;20030;-81
2021/08/14 07:52:54;;;;;;;14.40;9.10;;;;;;;;;;5033420;28;20383;-88
2021/08/14 07:55:20;;;;;;;11.80;7.68;;;;;;;;;;5034037;28;20073;-87
2021/08/14 07:57:46;;;;;;;12.05;8.40;;;;;;;;;;5035744;28;20057;-87
2021/08/14 08:00:15;;;;;;;8.18;7.47;;;;;;;;;;5037855;28;20109;-90
2021/08/14 08:02:41;;;;;;;9.85;8.85;;;;;;;;;;5037827;28;20387;-88
2021/08/14 08:05:07;;;;;;;11.50;8.63;;;;;;;;;;5037415;28;20037;-84
2021/08/14 08:07:34;;;;;;;10.82;8.57;;;;;;;;;;5037415;28;20026;-81
2021/08/14 08:10:02;;;;;;;11.00;9.80;;;;;;;;;;5037532;28;20438;-80
2021/08/14 08:12:28;;;;;;;14.52;9.18;;;;;;;;;;5037017;28;20029;-75
2021/08/14 08:14:54;;;;;;;12.35;9.63;;;;;;;;;;5038319;28;20037;-73
2021/08/14 08:17:20;;;;;;;11.52;9.20;;;;;;;;;;5037398;28;20489;-73
2021/08/14 08:19:47;;;;;;;22.48;9.32;;;;;;;;;;5038547;28;20465;-76
2021/08/14 08:22:13;;;;;;;13.10;8.52;;;;;;;;;;5038079;28;20033;-77
2021/08/14 08:24:39;;;;;;;10.73;9.52;;;;;;;;;;5038799;28;20068;-78
2021/08/14 08:27:05;;;;;;;10.50;9.43;;;;;;;;;;5035783;28;20028;-75
2021/08/14 08:29:31;;;;;;;10.35;9.27;;;;;;;;;;5038420;28;20026;-88
2021/08/14 08:31:58;;;;;;;11.95;8.48;;;;;;;;;;5039800;28;20053;-83
2021/08/14 08:34:24;;;;;;;9.77;8.65;;;;;;;;;;5034993;28;20068;-80
2021/08/14 08:36:51;;;;;;;9.77;8.80;;;;;;;;;;5038414;28;20455;-79
2021/08/14 08:39:19;;;;;;;13.63;9.10;;;;;;;;;;5038384;28;20029;-77
2021/08/14 08:41:45;;;;;;;11.88;9.15;;;;;;;;;;5037697;28;20044;-74
2021/08/14 08:44:11;;;;;;;9.43;8.48;;;;;;;;;;5036183;28;20022;-78
2021/08/14 08:46:37;;;;;;;11.32;9.45;;;;;;;;;;5038267;28;20033;-78
2021/08/14 08:49:03;;;;;;;10.77;9.77;;;;;;;;;;5039382;28;20108;-79
2021/08/14 08:51:30;;;;;;;15.90;10.55;;;;;;;;;;5039277;28;21770;-79
2021/08/14 08:53:56;;;;;;;16.80;9.23;;;;;;;;;;5037823;28;20558;-86
2021/08/14 08:56:22;;;;;;;10.73;9.65;;;;;;;;;;5039255;28;20036;-82
2021/08/14 08:58:48;;;;;;;10.23;9.25;;;;;;;;;;5038247;28;20046;-80
2021/08/14 09:01:14;;;;;;;18.77;9.50;;;;;;;;;;5039362;28;20365;-84
2021/08/14 09:03:40;;;;;;;9.98;9.13;;;;;;;;;;5036309;28;20030;-81
2021/08/14 09:06:06;;;;;;;9.80;8.88;;;;;;;;;;5040265;28;20030;-85
2021/08/14 09:08:33;;;;;;;10.80;9.85;;;;;;;;;;5038738;28;20026;-81
2021/08/14 09:11:06;;;;;;;11.40;10.38;;;;;;;;;;5039734;28;20048;-83
2021/08/14 09:13:32;;;;;;;12.38;9.98;;;;;;;;;;5038383;28;20037;-79
2021/08/14 09:16:01;;;;;;;11.07;9.80;;;;;;;;;;5038629;28;20086;-82
2021/08/14 09:18:28;;;;;;;16.58;10.77;;;;;;;;;;5037855;28;20025;-75
2021/08/14 09:20:54;;;;;;;10.93;9.77;;;;;;;;;;5037228;28;20109;-81
2021/08/14 09:23:22;;;;;;;11.45;8.98;;;;;;;;;;5038978;28;20048;-83
2021/08/14 09:25:50;;;;;;;14.00;9.65;;;;;;;;;;5034777;28;20498;-82
2021/08/14 09:28:17;;;;;;;9.88;8.95;;;;;;;;;;5038279;28;20390;-81
2021/08/14 09:30:44;;;;;;;17.83;9.82;;;;;;;;;;5036865;28;20120;-84
2021/08/14 09:33:10;;;;;;;11.18;10.07;;;;;;;;;;5037796;28;20060;-76
2021/08/14 09:35:36;;;;;;;9.98;9.00;;;;;;;;;;5032829;28;20034;-83
2021/08/14 09:38:03;;;;;;;10.10;9.00;;;;;;;;;;5037116;28;20028;-87
2021/08/14 09:40:37;;;;;;;12.15;9.20;;;;;;;;;;5037225;28;20079;-83
2021/08/14 09:43:04;;;;;;;10.70;9.60;;;;;;;;;;5037254;28;20029;-89
2021/08/14 09:45:30;;;;;;;18.30;8.82;;;;;;;;;;5034190;28;20029;-80
2021/08/14 09:47:56;;;;;;;9.65;8.80;;;;;;;;;;5037376;28;20117;-83
2021/08/14 09:50:37;;;;;;;9.55;8.65;;;;;;;;;;5038000;28;20022;-90
2021/08/14 09:53:23;;;;;;;9.63;8.73;;;;;;;;;;5038296;28;20074;-81
2021/08/14 09:55:50;;;;;;;9.63;8.88;;;;;;;;;;5022231;28;20037;-83
2021/08/14 09:58:20;;;;;;;11.90;8.45;;;;;;;;;;5037450;28;20445;-82
2021/08/14 10:00:47;;;;;;;8.50;7.72;;;;;;;;;;5038546;28;20044;-86
2021/08/14 10:03:14;;;;;;;8.90;7.80;;;;;;;;;;5038942;28;20026;-82
2021/08/14 10:05:41;;;;;;;12.52;8.18;;;;;;;;;;5037083;28;20014;-80
2021/08/14 10:08:07;;;;;;;10.93;8.35;;;;;;;;;;5036869;28;20451;-79
2021/08/14 10:10:33;;;;;;;10.68;9.07;;;;;;;;;;5036821;28;20033;-80
2021/08/14 10:12:59;;;;;;;9.88;8.88;;;;;;;;;;5037777;28;20112;-80
2021/08/14 10:15:25;;;;;;;9.27;8.38;;;;;;;;;;5038158;28;20040;-80
2021/08/14 10:17:51;;;;;;;10.77;8.73;;;;;;;;;;5038329;28;20029;-80
2021/08/14 10:20:17;;;;;;;10.52;9.52;;;;;;;;;;5037283;28;20053;-80
2021/08/14 10:22:45;;;;;;;12.70;10.32;;;;;;;;;;5038115;28;20030;-80
2021/08/14 10:25:18;;;;;;;9.80;8.80;;;;;;;;;;5038130;28;20079;-80
2021/08/14 10:27:55;;;;;;;11.18;10.10;;;;;;;;;;5038486;28;20356;-80
2021/08/14 10:30:38;;;;;;;10.40;9.30;;;;;;;;;;5038468;28;20071;-80
2021/08/14 10:33:04;;;;;;;12.52;10.10;;;;;;;;;;5038336;28;20025;-81
2021/08/14 10:35:31;;;;;;;14.98;10.30;;;;;;;;;;5037589;28;20041;-80
2021/08/14 10:37:57;;;;;;;11.95;10.85;;;;;;;;;;5037655;28;20490;-81
2021/08/14 10:40:24;;;;;;;14.05;12.40;;;;;;;;;;5037989;28;20026;-86
2021/08/14 10:42:56;;;;;;;13.95;10.52;;;;;;;;;;5038492;28;20108;-82
2021/08/14 10:45:23;;;;;;;11.40;10.23;;;;;;;;;;5038089;28;20087;-81
2021/08/14 10:47:50;;;;;;;15.77;11.80;;;;;;;;;;5037808;28;20485;-82
2021/08/14 10:50:36;;;;;;;10.50;9.40;;;;;;;;;;5037257;28;20037;-81
2021/08/14 10:53:18;;;;;;;12.70;9.68;;;;;;;;;;5023538;28;20021;-80
2021/08/14 10:55:46;;;;;;;10.57;9.50;;;;;;;;;;5037746;28;20041;-80
2021/08/14 10:58:32;;;;;;;10.95;9.85;;;;;;;;;;5037603;28;20053;-80
2021/08/14 11:01:18;;;;;;;13.15;8.60;;;;;;;;;;5022649;28;20037;-80
2021/08/14 11:03:44;;;;;;;10.63;9.35;;;;;;;;;;5023443;28;20029;-80
2021/08/14 11:06:28;;;;;;;15.50;10.07;;;;;;;;;;5037790;28;20030;-81
2021/08/14 11:09:14;;;;;;;16.48;8.93;;;;;;;;;;5037830;28;20022;-80
2021/08/14 11:11:40;;;;;;;23.33;8.80;;;;;;;;;;5023656;28;20053;-83
2021/08/14 11:14:07;;;;;;;15.77;8.48;;;;;;;;;;5034980;28;20131;-83
2021/08/14 11:16:53;;;;;;;12.68;8.20;;;;;;;;;;5035252;28;20030;-85
2021/08/14 11:19:38;;;;;;;12.10;8.82;;;;;;;;;;5022081;28;20017;-85
2021/08/14 11:22:20;;;;;;;10.73;7.22;;;;;;;;;;5021922;28;20024;-76
2021/08/14 11:24:46;;;;;;;13.00;8.32;;;;;;;;;;5029337;28;20088;-78
2021/08/14 11:27:32;;;;;;;8.77;7.20;;;;;;;;;;5035914;28;20022;-77
2021/08/14 11:30:00;;;;;;;14.07;8.82;;;;;;;;;;5019725;28;20025;-78
2021/08/14 11:32:26;;;;;;;7.72;6.93;;;;;;;;;;5037587;28;20025;-77
2021/08/14 11:34:52;;;;;;;14.07;8.35;;;;;;;;;;5037799;28;20046;-79
2021/08/14 11:37:19;;;;;;;8.85;7.68;;;;;;;;;;5040019;28;20032;-78
2021/08/14 11:39:45;;;;;;;9.00;8.10;;;;;;;;;;5036366;28;20379;-76
2021/08/14 11:42:11;;;;;;;11.38;10.15;;;;;;;;;;5038127;28;20017;-77
2021/08/14 11:44:37;;;;;;;10.80;9.80;;;;;;;;;;5034767;28;20036;-77
2021/08/14 11:47:04;;;;;;;9.38;8.57;;;;;;;;;;5036638;28;20026;-77
2021/08/14 11:49:30;;;;;;;12.15;8.80;;;;;;;;;;5037917;28;20052;-77
2021/08/14 11:52:04;;;;;;;13.77;8.75;;;;;;;;;;5038238;28;20434;-76
2021/08/14 11:54:30;;;;;;;9.73;8.73;;;;;;;;;;5037317;28;20036;-77
2021/08/14 11:57:07;;;;;;;10.13;9.20;;;;;;;;;;5034698;28;20061;-77
2021/08/14 11:59:34;;;;;;;10.27;8.38;;;;;;;;;;5038439;28;20053;-78
2021/08/14 12:02:00;;;;;;;8.70;7.72;;;;;;;;;;5038843;28;20026;-78
2021/08/14 12:04:26;;;;;;;10.23;8.95;;;;;;;;;;5037876;28;20038;-79
2021/08/14 12:06:55;;;;;;;8.95;8.10;;;;;;;;;;5036092;28;20549;-79
2021/08/14 12:09:21;;;;;;;9.70;8.70;;;;;;;;;;5038437;28;20029;-78
2021/08/14 12:11:47;;;;;;;10.68;9.57;;;;;;;;;;5038920;28;20037;-77
2021/08/14 12:14:15;;;;;;;10.32;9.43;;;;;;;;;;5037663;28;20497;-77
2021/08/14 12:16:41;;;;;;;12.73;9.10;;;;;;;;;;5034188;28;20025;-77
2021/08/14 12:19:15;;;;;;;12.20;10.98;;;;;;;;;;5037191;28;20026;-78
2021/08/14 12:21:41;;;;;;;11.50;10.25;;;;;;;;;;5037296;28;20040;-77
2021/08/14 12:24:08;;;;;;;10.13;9.32;;;;;;;;;;5037579;28;20040;-78
2021/08/14 12:26:34;;;;;;;10.18;9.23;;;;;;;;;;5033755;28;20025;-77
2021/08/14 12:29:03;;;;;;;13.30;10.50;;;;;;;;;;5037776;28;20026;-74
2021/08/14 12:31:29;;;;;;;9.20;8.40;;;;;;;;;;5036715;28;20060;-76
2021/08/14 12:33:56;;;;;;;9.73;8.63;;;;;;;;;;5035970;28;20034;-77
2021/08/14 12:36:37;;;;;;;10.32;9.20;;;;;;;;;;5035816;28;20116;-75
2021/08/14 12:39:04;;;;;;;10.30;9.38;;;;;;;;;;5035805;28;20026;-78
2021/08/14 12:41:34;;;;;;;12.57;10.10;;;;;;;;;;5035332;28;20112;-75
2021/08/14 12:44:00;;;;;;;11.98;9.85;;;;;;;;;;5035202;28;20033;-78
2021/08/14 12:46:26;;;;;;;9.88;8.98;;;;;;;;;;5035450;28;20117;-78
2021/08/14 12:49:12;;;;;;;10.98;9.98;;;;;;;;;;5035838;28;20033;-78
2021/08/14 12:51:38;;;;;;;14.18;11.13;;;;;;;;;;5021324;28;20025;-78
2021/08/14 12:54:11;;;;;;;14.52;11.55;;;;;;;;;;5035789;28;20403;-78
2021/08/14 12:56:39;;;;;;;15.77;12.10;;;;;;;;;;5035602;28;20053;-78
2021/08/14 12:59:05;;;;;;;14.35;10.48;;;;;;;;;;5035371;28;20077;-78
2021/08/14 13:01:31;;;;;;;25.27;14.00;;;;;;;;;;5035513;28;20033;-78
2021/08/14 13:03:57;;;;;;;24.05;12.82;;;;;;;;;;5035620;28;20064;-78
2021/08/14 13:06:23;;;;;;;26.30;15.38;;;;;;;;;;5035053;28;20072;-78
2021/08/14 13:08:49;;;;;;;23.73;18.67;;;;;;;;;;5035413;28;20478;-78
2021/08/14 13:11:16;;;;;;;33.75;16.40;;;;;;;;;;5035451;28;20536;-77
2021/08/14 13:13:42;;;;;;;36.83;17.02;;;;;;;;;;5035158;28;20490;-77
2021/08/14 13:16:08;;;;;;;29.88;16.77;;;;;;;;;;5034903;28;20467;-78
2021/08/14 13:18:34;;;;;;;39.35;17.15;;;;;;;;;;5034712;28;20064;-77
2021/08/14 13:21:01;;;;;;;30.02;17.83;;;;;;;;;;5034905;28;20036;-79
2021/08/14 13:23:27;;;;;;;42.10;20.80;;;;;;;;;;5035348;28;20414;-78
2021/08/14 13:25:55;;;;;;;46.95;18.35;;;;;;;;;;5035370;28;20021;-78
2021/08/14 13:28:21;;;;;;;41.70;19.33;;;;;;;;;;5034855;28;20456;-78
2021/08/14 13:30:48;;;;;;;36.42;18.52;;;;;;;;;;5035014;28;20029;-78
2021/08/14 13:33:14;;;;;;;36.95;21.50;;;;;;;;;;5034801;28;20060;-77
2021/08/14 13:35:41;;;;;;;38.28;19.52;;;;;;;;;;5040235;28;20033;-78
2021/08/14 13:38:07;;;;;;;47.20;21.95;;;;;;;;;;5034752;28;20053;-79
2021/08/14 13:40:33;;;;;;;38.85;19.25;;;;;;;;;;5034960;28;20098;-80
2021/08/14 13:42:59;;;;;;;34.95;19.30;;;;;;;;;;5035040;28;20531;-82
2021/08/14 13:45:25;;;;;;;47.03;19.20;;;;;;;;;;5034886;28;20025;-80
2021/08/14 13:47:51;;;;;;;35.83;17.67;;;;;;;;;;5034799;28;20047;-79
2021/08/14 13:50:17;;;;;;;41.13;19.80;;;;;;;;;;5034378;28;20080;-78
2021/08/14 13:52:46;;;;;;;40.30;21.58;;;;;;;;;;5035021;28;20352;-79
2021/08/14 13:55:13;;;;;;;41.83;21.40;;;;;;;;;;5034427;28;20068;-79
2021/08/14 13:57:39;;;;;;;28.30;16.58;;;;;;;;;;5034187;28;20032;-79
2021/08/14 14:00:05;;;;;;;42.25;18.48;;;;;;;;;;5034394;28;20459;-78
2021/08/14 14:02:32;;;;;;;37.50;18.58;;;;;;;;;;5033747;28;20056;-78
2021/08/14 14:04:58;;;;;;;37.78;18.60;;;;;;;;;;5034323;28;20068;-78
2021/08/14 14:07:24;;;;;;;39.78;19.67;;;;;;;;;;5033918;28;20017;-78
2021/08/14 14:09:50;;;;;;;31.27;17.33;;;;;;;;;;5034216;28;20022;-78
2021/08/14 14:12:16;;;;;;;39.47;18.92;;;;;;;;;;5034404;28;20021;-79
2021/08/14 14:14:42;;;;;;;43.05;18.80;;;;;;;;;;5033349;28;20514;-81
2021/08/14 14:17:08;;;;;;;28.15;17.67;;;;;;;;;;5033511;28;20036;-78
2021/08/14 14:19:34;;;;;;;35.92;18.45;;;;;;;;;;5033753;28;20463;-78
2021/08/14 14:22:00;;;;;;;27.77;16.85;;;;;;;;;;5034122;28;20026;-79
2021/08/14 14:24:26;;;;;;;23.77;14.70;;;;;;;;;;5033842;28;20030;-78
2021/08/14 14:26:52;;;;;;;33.05;18.52;;;;;;;;;;5033918;28;20040;-78
2021/08/14 14:29:18;;;;;;;24.73;13.68;;;;;;;;;;5033832;28;20535;-79